Time;durP1;ratioP1;P1;durP2;ratioP2;P2;SDS_P1;SDS_P2;PMS_P1;PMS_P2;Temp;Humidity;BMP_temperature;BMP_pressure;BME280_temperature;BME280_humidity;BME280_pressure;Samples;Min_cycle;Max_cycle;Signal;HPM_P1;HPM_P2
2022/06/09 00:01:40;;;;;;;4.03;1.20;;;20.50;65.90;;;;;;4958797;28;20022;-70
2022/06/09 00:04:22;;;;;;;4.68;1.35;;;20.50;65.90;;;;;;4975861;28;20035;-70
2022/06/09 00:06:51;;;;;;;11.95;1.25;;;20.50;66.00;;;;;;4958559;28;20101;-70
2022/06/09 00:09:18;;;;;;;1.83;0.90;;;20.50;66.10;;;;;;4974663;28;20490;-70
2022/06/09 00:11:49;;;;;;;4.05;1.15;;;20.50;66.00;;;;;;4974431;28;20022;-70
2022/06/09 00:14:15;;;;;;;6.75;1.15;;;20.50;66.10;;;;;;4975592;28;20103;-70
2022/06/09 00:16:41;;;;;;;3.75;1.00;;;20.50;66.10;;;;;;4974635;28;20058;-70
2022/06/09 00:19:07;;;;;;;4.82;1.45;;;20.50;66.20;;;;;;4974510;28;20057;-70
2022/06/09 00:21:34;;;;;;;3.67;1.30;;;20.50;66.30;;;;;;4974664;28;20062;-70
2022/06/09 00:23:59;;;;;;;3.97;1.10;;;20.50;66.50;;;;;;4958450;28;20031;-70
2022/06/09 00:26:25;;;;;;;4.68;1.38;;;20.50;66.50;;;;;;4973989;28;20489;-70
2022/06/09 00:28:50;;;;;;;8.43;1.25;;;20.50;66.40;;;;;;4975367;28;20379;-70
2022/06/09 00:31:16;;;;;;;6.28;1.58;;;20.50;66.50;;;;;;4975611;28;20474;-70
2022/06/09 00:33:42;;;;;;;6.32;1.00;;;20.40;66.40;;;;;;4975313;28;20046;-70
2022/06/09 00:36:07;;;;;;;5.47;1.65;;;20.50;66.50;;;;;;4975338;28;20026;-70
2022/06/09 00:38:33;;;;;;;2.88;1.05;;;20.40;66.50;;;;;;4975408;28;20089;-70
2022/06/09 00:40:59;;;;;;;7.30;1.73;;;20.40;66.50;;;;;;4975098;28;20038;-70
2022/06/09 00:43:26;;;;;;;4.55;1.23;;;20.50;66.50;;;;;;4975533;28;20089;-70
2022/06/09 00:46:19;;;;;;;4.55;1.45;;;20.50;66.50;;;;;;4974969;28;20058;-70
2022/06/09 00:48:52;;;;;;;7.70;1.63;;;20.40;66.40;;;;;;4971657;28;20093;-70
2022/06/09 00:51:36;;;;;;;6.63;1.40;;;20.40;66.40;;;;;;4975216;28;20047;-70
2022/06/09 00:54:09;;;;;;;4.20;1.20;;;20.40;66.50;;;;;;4974732;28;20382;-70
2022/06/09 00:56:40;;;;;;;2.85;1.33;;;20.40;66.50;;;;;;4973797;28;20037;-70
2022/06/09 00:59:05;;;;;;;4.10;1.42;;;20.40;66.50;;;;;;4973844;28;20101;-70
2022/06/09 01:01:32;;;;;;;3.45;1.00;;;20.40;66.50;;;;;;4973985;28;20474;-70
2022/06/09 01:04:01;;;;;;;7.53;1.88;;;20.40;66.50;;;;;;4974895;28;20027;-70
2022/06/09 01:06:29;;;;;;;8.25;1.35;;;20.50;66.50;;;;;;4973184;28;20463;-70
2022/06/09 01:09:04;;;;;;;3.63;1.15;;;20.40;66.60;;;;;;4973384;28;20038;-70
2022/06/09 01:11:29;;;;;;;6.60;1.42;;;20.40;66.50;;;;;;4973656;28;20053;-70
2022/06/09 01:13:56;;;;;;;3.15;1.00;;;20.40;66.60;;;;;;4974654;28;20067;-70
2022/06/09 01:16:24;;;;;;;3.20;1.35;;;20.40;66.60;;;;;;4956841;28;20460;-70
2022/06/09 01:19:05;;;;;;;3.13;1.00;;;20.50;66.70;;;;;;4974668;28;20489;-70
2022/06/09 01:22:08;;;;;;;3.15;0.90;;;20.50;66.70;;;;;;4973393;28;20027;-70
2022/06/09 01:24:45;;;;;;;6.28;1.20;;;20.50;66.80;;;;;;4974290;28;20066;-70
2022/06/09 01:27:19;;;;;;;2.53;0.90;;;20.50;66.80;;;;;;4974228;28;20031;-70
2022/06/09 01:30:28;;;;;;;8.75;1.48;;;20.40;66.70;;;;;;4973207;28;20363;-70
2022/06/09 01:33:04;;;;;;;5.95;1.05;;;20.40;66.80;;;;;;4972195;28;20027;-70
2022/06/09 01:35:41;;;;;;;5.57;1.33;;;20.40;66.80;;;;;;4956012;28;20034;-69
2022/06/09 01:38:07;;;;;;;4.18;1.60;;;20.40;66.90;;;;;;4955678;28;20031;-70
2022/06/09 01:40:32;;;;;;;4.18;1.10;;;20.40;66.90;;;;;;4955827;28;20046;-70
2022/06/09 01:42:58;;;;;;;4.55;1.48;;;20.40;66.90;;;;;;4972050;28;20046;-69
2022/06/09 01:45:54;;;;;;;8.20;1.45;;;20.40;67.00;;;;;;4955988;28;20050;-69
2022/06/09 01:48:20;;;;;;;2.70;0.90;;;20.40;67.10;;;;;;4955697;28;20497;-69
2022/06/09 01:50:50;;;;;;;3.83;1.40;;;20.40;67.10;;;;;;4939716;28;20425;-69
2022/06/09 01:53:37;;;;;;;5.13;1.33;;;20.40;67.20;;;;;;4955608;28;20058;-69
2022/06/09 01:56:07;;;;;;;5.25;1.20;;;20.40;67.30;;;;;;4955853;28;20049;-69
2022/06/09 01:58:41;;;;;;;3.10;1.00;;;20.40;67.40;;;;;;4955735;28;20134;-69
2022/06/09 02:01:07;;;;;;;7.40;1.27;;;20.40;67.40;;;;;;4955506;28;20031;-69
2022/06/09 02:03:36;;;;;;;4.10;1.05;;;20.40;67.40;;;;;;4961908;28;20560;-69
2022/06/09 02:06:02;;;;;;;5.10;1.33;;;20.40;67.50;;;;;;4956636;28;20606;-69
2022/06/09 02:08:29;;;;;;;4.90;1.58;;;20.40;67.50;;;;;;4972597;28;20141;-69
2022/06/09 02:10:59;;;;;;;3.05;1.17;;;20.40;67.50;;;;;;4972516;28;20015;-69
2022/06/09 02:13:29;;;;;;;3.33;1.00;;;20.40;67.50;;;;;;4972503;28;20038;-69
2022/06/09 02:15:58;;;;;;;5.13;1.20;;;20.40;67.50;;;;;;4954565;29;20020;-69
2022/06/09 02:18:25;;;;;;;3.80;1.05;;;20.40;67.50;;;;;;4952971;29;20027;-69
2022/06/09 02:21:04;;;;;;;4.60;0.90;;;20.40;67.50;;;;;;4969076;28;20074;-69
2022/06/09 02:23:30;;;;;;;4.93;1.40;;;20.40;67.50;;;;;;4968103;28;20035;-70
2022/06/09 02:25:55;;;;;;;1.80;0.85;;;20.40;67.50;;;;;;4953094;29;20371;-69
2022/06/09 02:28:21;;;;;;;3.75;1.02;;;20.40;67.60;;;;;;4952226;29;20054;-69
2022/06/09 02:30:47;;;;;;;4.63;1.20;;;20.40;67.60;;;;;;4969245;28;20098;-69
2022/06/09 02:33:13;;;;;;;4.07;1.20;;;20.40;67.60;;;;;;4969427;28;20110;-70
2022/06/09 02:35:39;;;;;;;3.92;0.90;;;20.40;67.60;;;;;;4968885;28;20078;-69
2022/06/09 02:38:04;;;;;;;2.72;1.20;;;20.40;67.70;;;;;;4953096;29;20055;-69
2022/06/09 02:40:31;;;;;;;5.00;1.08;;;20.40;67.70;;;;;;4953949;29;20066;-69
2022/06/09 02:42:56;;;;;;;5.07;1.15;;;20.40;67.80;;;;;;4952961;28;20129;-69
2022/06/09 02:45:22;;;;;;;2.97;1.10;;;20.40;67.70;;;;;;4969020;28;20031;-69
2022/06/09 02:47:48;;;;;;;2.47;1.08;;;20.40;67.80;;;;;;4968747;28;20462;-70
2022/06/09 02:50:14;;;;;;;4.45;1.30;;;20.40;67.70;;;;;;4968794;28;20023;-69
2022/06/09 02:52:41;;;;;;;3.20;0.93;;;20.40;67.80;;;;;;4952933;29;20031;-69
2022/06/09 02:55:07;;;;;;;5.40;0.95;;;20.40;67.70;;;;;;4968622;28;20375;-69
2022/06/09 02:57:33;;;;;;;5.13;1.20;;;20.40;67.90;;;;;;4952923;29;20027;-69
2022/06/09 02:59:59;;;;;;;5.20;1.48;;;20.40;67.90;;;;;;4954131;29;20093;-69
2022/06/09 03:02:24;;;;;;;3.67;1.00;;;20.40;67.90;;;;;;4954109;29;20501;-69
2022/06/09 03:04:50;;;;;;;4.97;1.20;;;20.40;68.00;;;;;;4968468;28;20552;-69
2022/06/09 03:07:16;;;;;;;6.80;1.33;;;20.30;67.90;;;;;;4967634;28;20117;-69
2022/06/09 03:09:42;;;;;;;4.35;1.20;;;20.40;68.00;;;;;;4971182;28;20031;-71
2022/06/09 03:12:09;;;;;;;3.70;1.20;;;20.40;68.00;;;;;;4955739;28;20047;-69
2022/06/09 03:14:35;;;;;;;14.57;1.52;;;20.40;68.10;;;;;;4971462;28;20026;-68
2022/06/09 03:17:01;;;;;;;5.47;1.50;;;20.40;68.00;;;;;;4971118;28;20450;-69
2022/06/09 03:19:26;;;;;;;8.27;1.27;;;20.40;68.10;;;;;;4970085;28;20086;-69
2022/06/09 03:21:52;;;;;;;8.60;0.90;;;20.40;68.10;;;;;;4972682;28;20154;-69
2022/06/09 03:24:18;;;;;;;6.82;1.20;;;20.40;68.10;;;;;;4971874;28;20405;-69
2022/06/09 03:26:44;;;;;;;8.55;1.30;;;20.40;68.10;;;;;;4973146;28;20026;-69
2022/06/09 03:29:10;;;;;;;4.70;1.38;;;20.40;68.10;;;;;;4972832;28;20382;-69
2022/06/09 03:31:36;;;;;;;4.00;1.33;;;20.40;68.10;;;;;;4973018;28;20085;-69
2022/06/09 03:34:02;;;;;;;5.57;1.63;;;20.40;68.10;;;;;;4971745;28;20445;-69
2022/06/09 03:36:29;;;;;;;5.60;1.15;;;20.40;68.20;;;;;;4971561;28;20054;-69
2022/06/09 03:38:55;;;;;;;6.38;1.10;;;20.40;68.20;;;;;;4974117;28;20034;-69
2022/06/09 03:41:20;;;;;;;3.25;1.25;;;20.40;68.30;;;;;;4976292;28;20035;-70
2022/06/09 03:43:47;;;;;;;7.07;1.20;;;20.40;68.30;;;;;;4976253;28;20034;-70
2022/06/09 03:46:14;;;;;;;5.70;1.77;;;20.40;68.30;;;;;;4976316;28;20026;-69
2022/06/09 03:48:40;;;;;;;7.45;1.20;;;20.40;68.30;;;;;;4976102;28;20090;-69
2022/06/09 03:51:05;;;;;;;7.88;1.30;;;20.40;68.40;;;;;;4976183;28;20490;-69
2022/06/09 03:53:31;;;;;;;6.03;1.10;;;20.40;68.40;;;;;;4974899;28;20102;-69
2022/06/09 03:55:57;;;;;;;5.75;1.20;;;20.40;68.40;;;;;;4975184;28;20050;-69
2022/06/09 03:58:23;;;;;;;7.00;1.30;;;20.40;68.40;;;;;;4974841;28;20027;-69
2022/06/09 04:00:49;;;;;;;4.82;1.10;;;20.40;68.40;;;;;;4974834;28;20031;-69
2022/06/09 04:03:14;;;;;;;5.35;1.25;;;20.40;68.30;;;;;;4976026;28;20363;-69
2022/06/09 04:05:41;;;;;;;6.68;1.35;;;20.40;68.40;;;;;;4974520;28;20034;-69
2022/06/09 04:08:09;;;;;;;6.22;1.17;;;20.40;68.40;;;;;;4975915;28;20026;-69
2022/06/09 04:10:35;;;;;;;3.72;1.00;;;20.40;68.40;;;;;;4974613;28;20037;-69
2022/06/09 04:13:00;;;;;;;3.70;1.33;;;20.40;68.40;;;;;;4975782;28;20022;-69
2022/06/09 04:15:26;;;;;;;5.82;1.17;;;20.40;68.50;;;;;;4975614;28;20049;-69
2022/06/09 04:17:52;;;;;;;7.18;1.20;;;20.40;68.40;;;;;;4974383;28;20031;-69
2022/06/09 04:20:22;;;;;;;6.55;1.45;;;20.30;68.40;;;;;;4974585;28;20113;-69
2022/06/09 04:22:48;;;;;;;4.90;1.20;;;20.40;68.50;;;;;;4957505;28;20023;-69
2022/06/09 04:25:13;;;;;;;9.55;1.48;;;20.40;68.50;;;;;;4974084;28;20043;-69
2022/06/09 04:27:39;;;;;;;6.20;1.05;;;20.30;68.50;;;;;;4974329;28;20031;-69
2022/06/09 04:30:06;;;;;;;6.65;1.30;;;20.30;68.50;;;;;;4975641;28;20493;-69
2022/06/09 04:32:31;;;;;;;7.28;1.30;;;20.30;68.60;;;;;;4973948;28;20113;-69
2022/06/09 04:34:57;;;;;;;3.50;0.98;;;20.40;68.60;;;;;;4975388;28;20046;-69
2022/06/09 04:37:59;;;;;;;5.97;1.20;;;20.40;68.60;;;;;;4975379;28;20042;-69
2022/06/09 04:40:09;;;;;;;7.10;1.27;;;20.30;68.60;;;;;;4974007;28;20271;-70
2022/06/09 04:42:35;;;;;;;8.27;1.23;;;20.30;68.70;;;;;;4973371;28;20470;-69
2022/06/09 04:45:01;;;;;;;4.78;1.20;;;20.30;68.70;;;;;;4975092;28;20025;-69
2022/06/09 04:47:26;;;;;;;5.22;1.55;;;20.40;68.80;;;;;;4974804;28;20437;-69
2022/06/09 04:49:52;;;;;;;6.35;1.52;;;20.40;68.80;;;;;;4974319;28;20560;-69
2022/06/09 04:52:17;;;;;;;5.38;1.20;;;20.30;68.60;;;;;;4975105;28;20031;-69
2022/06/09 04:54:43;;;;;;;9.50;1.38;;;20.40;68.70;;;;;;4975105;28;20022;-69
2022/06/09 04:57:09;;;;;;;4.13;1.08;;;20.30;68.70;;;;;;4975161;28;20031;-70
2022/06/09 04:59:34;;;;;;;5.32;1.25;;;20.40;68.80;;;;;;4974904;28;20019;-69
2022/06/09 05:02:00;;;;;;;4.72;1.08;;;20.30;68.70;;;;;;4974729;28;20501;-69
2022/06/09 05:04:25;;;;;;;7.38;1.30;;;20.30;68.70;;;;;;4974807;28;20055;-70
2022/06/09 05:06:51;;;;;;;4.57;1.20;;;20.30;68.70;;;;;;4973361;28;20113;-70
2022/06/09 05:09:17;;;;;;;5.53;1.38;;;20.30;68.70;;;;;;4974938;28;20038;-70
2022/06/09 05:11:42;;;;;;;7.03;1.60;;;20.30;68.70;;;;;;4974609;28;20200;-70
2022/06/09 05:14:09;;;;;;;9.35;1.45;;;20.30;68.70;;;;;;4969157;28;20401;-70
2022/06/09 05:16:35;;;;;;;5.55;1.80;;;20.30;68.80;;;;;;4954104;29;20023;-70
2022/06/09 05:19:00;;;;;;;4.88;1.23;;;20.30;68.70;;;;;;4954204;29;20102;-69
2022/06/09 05:21:26;;;;;;;6.75;1.25;;;20.30;68.80;;;;;;4954048;29;20106;-69
2022/06/09 05:23:52;;;;;;;6.78;1.40;;;20.30;68.80;;;;;;4955299;29;20023;-70
2022/06/09 05:26:17;;;;;;;3.03;1.15;;;20.30;69.00;;;;;;4937995;29;20391;-70
2022/06/09 05:28:43;;;;;;;7.43;1.67;;;20.30;69.00;;;;;;4953904;29;20030;-70
2022/06/09 05:31:09;;;;;;;7.63;1.45;;;20.30;69.00;;;;;;4954871;29;20023;-70
2022/06/09 05:33:35;;;;;;;3.45;0.93;;;20.30;69.10;;;;;;4954636;29;20023;-70
2022/06/09 05:36:00;;;;;;;4.65;1.30;;;20.30;69.10;;;;;;4937889;29;20038;-70
2022/06/09 05:46:41;;;;;;;2.97;0.90;;;20.30;69.20;;;;;;4954766;29;20081;-69
2022/06/09 05:49:09;;;;;;;5.82;1.08;;;20.30;69.20;;;;;;4960562;28;20058;-69
2022/06/09 05:51:35;;;;;;;5.68;1.45;;;20.30;69.30;;;;;;4972919;28;20023;-70
2022/06/09 05:54:01;;;;;;;3.70;1.00;;;20.30;69.30;;;;;;4955856;28;20109;-69
2022/06/09 05:56:27;;;;;;;3.13;1.20;;;20.30;69.40;;;;;;4972917;28;20113;-70
2022/06/09 05:58:52;;;;;;;3.80;0.88;;;20.30;69.50;;;;;;4971472;28;20113;-70
2022/06/09 06:01:18;;;;;;;4.60;1.10;;;20.30;69.50;;;;;;4971665;28;20026;-69
2022/06/09 06:03:44;;;;;;;3.55;1.10;;;20.30;69.50;;;;;;4971794;28;20035;-70
2022/06/09 06:08:56;;;;;;;3.53;1.17;;;20.30;69.50;;;;;;4973734;28;20056;-70
2022/06/09 06:11:23;;;;;;;10.77;0.98;;;20.30;69.60;;;;;;4973881;28;20023;-71
2022/06/09 06:13:49;;;;;;;10.15;1.48;;;20.30;69.30;;;;;;4973286;28;20026;-71
2022/06/09 06:16:15;;;;;;;4.13;1.40;;;20.30;68.60;;;;;;4954987;28;20026;-70
2022/06/09 06:18:40;;;;;;;9.82;1.60;;;20.30;68.20;;;;;;4973421;28;20077;-71
2022/06/09 06:21:06;;;;;;;9.77;1.55;;;20.20;67.70;;;;;;4973552;28;20514;-70
2022/06/09 06:23:33;;;;;;;8.45;1.63;;;20.20;67.40;;;;;;4972313;28;20520;-70
2022/06/09 06:26:00;;;;;;;13.93;2.13;;;20.20;67.20;;;;;;4972466;28;20023;-70
2022/06/09 06:28:27;;;;;;;10.50;1.63;;;20.20;66.90;;;;;;4973199;28;20440;-71
2022/06/09 06:30:54;;;;;;;10.23;1.77;;;20.10;66.70;;;;;;4972183;28;20141;-71
2022/06/09 06:33:19;;;;;;;8.77;1.65;;;20.10;66.50;;;;;;4973581;28;20037;-71
2022/06/09 06:35:45;;;;;;;15.07;1.92;;;20.10;66.30;;;;;;4972464;28;20023;-71
2022/06/09 06:38:11;;;;;;;14.00;2.53;;;20.00;66.00;;;;;;4972280;28;20027;-71
2022/06/09 06:40:38;;;;;;;10.05;1.75;;;20.00;66.10;;;;;;4972367;28;20504;-71
2022/06/09 06:43:04;;;;;;;13.57;2.00;;;20.00;65.90;;;;;;4972931;28;20053;-71
2022/06/09 06:45:30;;;;;;;11.88;2.00;;;20.00;65.70;;;;;;4972452;28;20456;-71
2022/06/09 06:47:57;;;;;;;13.35;2.10;;;19.90;65.50;;;;;;4973306;28;20047;-71
2022/06/09 06:50:24;;;;;;;15.45;2.65;;;19.90;65.30;;;;;;4972367;28;20023;-71
2022/06/09 06:52:49;;;;;;;19.83;3.20;;;19.80;65.40;;;;;;4973237;28;20113;-71
2022/06/09 06:55:16;;;;;;;18.83;3.00;;;19.90;65.60;;;;;;4972129;28;20537;-71
2022/06/09 06:57:41;;;;;;;16.85;2.85;;;19.80;65.60;;;;;;4954142;28;20042;-72
2022/06/09 07:00:11;;;;;;;16.33;3.05;;;19.90;65.70;;;;;;4971564;28;20397;-72
2022/06/09 07:02:36;;;;;;;22.48;3.40;;;19.90;65.80;;;;;;4972374;28;20105;-72
2022/06/09 07:05:02;;;;;;;13.48;2.92;;;19.90;65.90;;;;;;4972471;28;20105;-72
2022/06/09 07:07:28;;;;;;;16.88;2.90;;;19.90;66.00;;;;;;4972225;28;20113;-71
2022/06/09 07:09:54;;;;;;;15.90;2.83;;;19.80;65.90;;;;;;4971246;28;20398;-71
2022/06/09 07:12:20;;;;;;;22.85;3.50;;;19.80;65.70;;;;;;4971384;28;20339;-71
2022/06/09 07:14:45;;;;;;;13.85;2.35;;;19.80;65.80;;;;;;4975302;28;20074;-71
2022/06/09 07:17:11;;;;;;;17.20;2.72;;;19.80;65.80;;;;;;4974032;28;20033;-71
2022/06/09 07:19:37;;;;;;;17.30;2.45;;;19.70;65.50;;;;;;4975739;28;20023;-71
2022/06/09 07:22:03;;;;;;;14.25;2.50;;;19.70;65.60;;;;;;4975052;28;20437;-71
2022/06/09 07:24:29;;;;;;;16.70;2.72;;;19.70;65.60;;;;;;4976702;28;20015;-71
2022/06/09 07:26:54;;;;;;;17.27;2.65;;;19.70;65.30;;;;;;4976310;28;20486;-71
2022/06/09 07:29:20;;;;;;;15.55;2.33;;;19.60;65.00;;;;;;4975428;28;20058;-71
2022/06/09 07:31:46;;;;;;;15.45;2.38;;;19.60;65.20;;;;;;4959340;28;20030;-71
2022/06/09 07:34:11;;;;;;;8.68;2.30;;;19.60;65.20;;;;;;4976501;28;20399;-71
2022/06/09 07:36:37;;;;;;;15.18;2.15;;;19.60;65.20;;;;;;4975069;28;20394;-71
2022/06/09 07:39:03;;;;;;;12.55;2.20;;;19.60;65.20;;;;;;4976307;28;20034;-71
2022/06/09 07:41:29;;;;;;;15.18;2.50;;;19.60;65.10;;;;;;4975079;28;20023;-71
2022/06/09 07:43:54;;;;;;;11.30;2.53;;;19.60;64.90;;;;;;4975215;28;20533;-71
2022/06/09 07:46:20;;;;;;;13.23;2.35;;;19.50;64.90;;;;;;4976144;28;20046;-71
2022/06/09 07:48:46;;;;;;;13.25;2.78;;;19.50;65.00;;;;;;4974944;28;20050;-71
2022/06/09 07:51:12;;;;;;;11.85;1.95;;;19.60;65.00;;;;;;4958999;28;20394;-71
2022/06/09 07:53:38;;;;;;;15.63;1.85;;;19.50;64.90;;;;;;4974818;28;20023;-71
2022/06/09 07:56:04;;;;;;;10.30;2.33;;;19.60;65.00;;;;;;4976027;28;20038;-72
2022/06/09 07:58:29;;;;;;;9.23;1.98;;;19.50;64.40;;;;;;4958964;28;20085;-72
2022/06/09 08:00:55;;;;;;;13.73;1.73;;;19.50;64.50;;;;;;4974869;28;20038;-72
2022/06/09 08:03:23;;;;;;;10.75;2.03;;;19.50;64.50;;;;;;4976090;28;20101;-72
2022/06/09 08:05:48;;;;;;;14.20;2.60;;;19.50;64.50;;;;;;4958390;28;20401;-72
2022/06/09 08:08:14;;;;;;;12.30;1.80;;;19.50;64.60;;;;;;4974695;28;20031;-71
2022/06/09 08:10:41;;;;;;;10.38;2.72;;;19.50;64.40;;;;;;4974717;28;20036;-71
2022/06/09 08:13:07;;;;;;;11.60;1.83;;;19.50;64.00;;;;;;4974704;28;20580;-71
2022/06/09 08:15:33;;;;;;;10.70;1.80;;;19.50;64.00;;;;;;4974856;28;20030;-72
2022/06/09 08:17:59;;;;;;;9.43;1.85;;;19.50;63.40;;;;;;4974403;28;20030;-72
2022/06/09 08:20:27;;;;;;;11.05;2.17;;;19.50;63.40;;;;;;4974407;28;20085;-72
2022/06/09 08:22:52;;;;;;;6.47;1.70;;;19.50;63.70;;;;;;4974061;28;20069;-71
2022/06/09 08:25:19;;;;;;;11.30;2.30;;;19.50;63.80;;;;;;4973200;28;20034;-72
2022/06/09 08:27:44;;;;;;;9.63;2.10;;;19.50;63.80;;;;;;4974181;28;20057;-72
2022/06/09 08:30:11;;;;;;;10.38;2.22;;;19.50;63.80;;;;;;4974327;28;20026;-71
2022/06/09 08:32:37;;;;;;;7.88;1.35;;;19.50;63.80;;;;;;4974310;28;20022;-71
2022/06/09 08:35:03;;;;;;;6.72;1.23;;;19.50;63.90;;;;;;4958071;28;20106;-71
2022/06/09 08:37:29;;;;;;;7.15;1.10;;;19.50;63.90;;;;;;4974236;28;20026;-71
2022/06/09 08:39:54;;;;;;;7.47;1.70;;;19.40;63.70;;;;;;4975627;28;20401;-71
2022/06/09 08:42:32;;;;;;;8.68;1.70;;;19.40;63.70;;;;;;4974179;28;20478;-71
2022/06/09 08:45:08;;;;;;;6.78;1.55;;;19.40;63.80;;;;;;4973936;28;20031;-71
2022/06/09 08:47:46;;;;;;;6.55;1.38;;;19.40;63.80;;;;;;4973790;28;20046;-71
2022/06/09 08:50:16;;;;;;;8.55;1.45;;;19.40;63.80;;;;;;4974009;28;20106;-71
2022/06/09 08:52:44;;;;;;;8.77;1.45;;;19.40;63.70;;;;;;4957942;28;20106;-71
2022/06/09 08:55:51;;;;;;;7.85;1.58;;;19.40;63.70;;;;;;4974020;28;20033;-72
2022/06/09 08:58:27;;;;;;;9.15;1.60;;;19.40;63.70;;;;;;4973436;28;20089;-71
2022/06/09 09:01:10;;;;;;;10.90;1.75;;;19.50;64.00;;;;;;4973725;28;20030;-71
2022/06/09 09:03:43;;;;;;;6.35;1.38;;;19.40;64.00;;;;;;4974837;28;20382;-71
2022/06/09 09:06:21;;;;;;;8.85;1.60;;;19.40;63.80;;;;;;4973572;28;20030;-71
2022/06/09 09:08:46;;;;;;;6.97;1.92;;;19.50;63.60;;;;;;4974735;28;20027;-72
2022/06/09 09:11:51;;;;;;;8.52;1.95;;;19.40;63.60;;;;;;4973617;28;20402;-72
2022/06/09 09:14:21;;;;;;;7.88;1.42;;;19.40;63.30;;;;;;4973856;28;20041;-72
2022/06/09 09:17:07;;;;;;;6.35;1.38;;;19.50;63.40;;;;;;4973594;28;20046;-72
2022/06/09 09:19:43;;;;;;;10.63;1.48;;;19.40;63.50;;;;;;4974146;28;20369;-72
2022/06/09 09:22:20;;;;;;;9.32;1.40;;;19.40;63.30;;;;;;4973329;28;20030;-71
2022/06/09 09:25:17;;;;;;;6.07;1.20;;;19.40;63.10;;;;;;4969136;28;20146;-71
2022/06/09 09:28:05;;;;;;;7.05;1.40;;;19.40;63.10;;;;;;4954937;29;20031;-71
2022/06/09 09:30:36;;;;;;;10.23;1.20;;;19.50;63.10;;;;;;4953901;29;20405;-71
2022/06/09 09:33:02;;;;;;;9.45;1.20;;;19.40;63.10;;;;;;4954891;29;20080;-71
2022/06/09 09:35:40;;;;;;;7.97;1.30;;;19.40;63.10;;;;;;4953346;28;20023;-71
2022/06/09 09:38:06;;;;;;;5.05;1.20;;;19.40;63.00;;;;;;4953925;29;20035;-72
2022/06/09 09:40:35;;;;;;;5.82;1.15;;;19.50;63.20;;;;;;4954914;29;20059;-72
2022/06/09 09:43:25;;;;;;;6.50;1.30;;;19.40;63.10;;;;;;4954664;29;20027;-72
2022/06/09 09:45:52;;;;;;;5.88;1.20;;;19.40;63.10;;;;;;4954544;28;20101;-71
2022/06/09 09:48:17;;;;;;;6.72;1.30;;;19.40;63.20;;;;;;4953171;29;20134;-71
2022/06/09 09:51:03;;;;;;;6.72;1.48;;;19.50;63.40;;;;;;4954706;29;20051;-71
2022/06/09 09:53:28;;;;;;;6.53;1.30;;;19.50;63.30;;;;;;4954747;29;20490;-71
2022/06/09 09:55:54;;;;;;;5.78;1.48;;;19.50;63.20;;;;;;4954608;29;20031;-72
2022/06/09 09:58:27;;;;;;;6.40;1.20;;;19.50;63.20;;;;;;4954514;29;20035;-71
2022/06/09 10:01:25;;;;;;;6.38;1.45;;;19.50;63.00;;;;;;4953440;29;20027;-71
2022/06/09 10:09:52;;;;;;;8.45;1.20;;;19.50;63.00;;;;;;4973494;28;20089;-71
2022/06/09 10:12:32;;;;;;;5.45;1.25;;;19.50;62.80;;;;;;4972771;28;20062;-71
2022/06/09 10:15:10;;;;;;;6.63;1.23;;;19.50;62.90;;;;;;4972401;28;20019;-71
2022/06/09 10:17:43;;;;;;;6.10;1.20;;;19.50;62.90;;;;;;4973891;28;20027;-71
2022/06/09 10:20:32;;;;;;;5.63;0.95;;;19.50;64.00;;;;;;4972359;28;20026;-71
2022/06/09 10:23:01;;;;;;;4.90;0.90;;;19.50;62.90;;;;;;4972423;28;20022;-71
2022/06/09 10:25:33;;;;;;;6.53;0.93;;;19.50;62.90;;;;;;4973528;28;20520;-71
2022/06/09 10:28:04;;;;;;;6.00;1.10;;;19.50;62.90;;;;;;4972411;28;20114;-71
2022/06/09 10:30:39;;;;;;;4.15;1.10;;;19.50;63.10;;;;;;4972434;28;20393;-71
2022/06/09 10:33:28;;;;;;;5.10;1.08;;;19.50;62.80;;;;;;4957358;28;20101;-71
2022/06/09 10:35:57;;;;;;;6.13;1.25;;;19.50;63.60;;;;;;4958737;28;20031;-71
2022/06/09 10:38:37;;;;;;;2.80;1.05;;;19.50;62.30;;;;;;4956401;28;20029;-71
2022/06/09 10:41:04;;;;;;;4.55;1.20;;;19.50;62.50;;;;;;4972390;28;20030;-71
2022/06/09 10:43:45;;;;;;;5.93;0.90;;;19.50;62.60;;;;;;4956321;28;20081;-71
2022/06/09 10:46:17;;;;;;;6.40;1.25;;;19.50;62.60;;;;;;4957360;28;20051;-71
2022/06/09 10:55:17;;;;;;;;;;;19.50;63.00;;;;;;4963629;28;20080;-71
2022/06/09 10:58:04;;;;;;;3.25;0.80;;;19.60;63.10;;;;;;4977227;28;20424;-71
2022/06/09 11:00:32;;;;;;;4.40;0.90;;;19.60;63.20;;;;;;4975983;28;20559;-71
2022/06/09 11:03:02;;;;;;;3.50;1.10;;;19.60;63.20;;;;;;4976885;28;20390;-71
2022/06/09 11:05:55;;;;;;;5.18;1.02;;;19.60;63.90;;;;;;4960302;28;20094;-71
2022/06/09 11:08:30;;;;;;;2.20;0.63;;;19.60;62.60;;;;;;4957721;28;20056;-71
2022/06/09 11:11:44;;;;;;;4.10;0.90;;;19.60;62.60;;;;;;4972389;28;20031;-71
2022/06/09 11:14:40;;;;;;;4.55;1.23;;;19.60;62.80;;;;;;4974678;28;20039;-71
2022/06/09 11:17:18;;;;;;;4.10;0.88;;;19.60;62.90;;;;;;4974553;28;20049;-71
2022/06/09 11:20:17;;;;;;;3.42;0.80;;;19.60;62.80;;;;;;4974547;28;20035;-71
2022/06/09 11:22:45;;;;;;;5.88;0.90;;;19.60;62.40;;;;;;4974721;28;20027;-71
2022/06/09 11:25:20;;;;;;;6.15;1.05;;;19.60;62.20;;;;;;4974338;28;20039;-71
2022/06/09 11:28:10;;;;;;;5.28;0.98;;;19.70;62.00;;;;;;4974234;28;20460;-71
2022/06/09 11:30:44;;;;;;;3.67;0.77;;;19.60;62.00;;;;;;4974643;28;20094;-71
2022/06/09 11:33:41;;;;;;;4.90;0.85;;;19.70;62.10;;;;;;4974167;28;20510;-71
2022/06/09 11:36:07;;;;;;;3.22;0.70;;;19.70;62.30;;;;;;4993704;28;20045;-71
2022/06/09 11:38:50;;;;;;;5.07;0.82;;;19.70;62.50;;;;;;4993831;28;20031;-71
2022/06/09 11:41:49;;;;;;;3.40;1.02;;;19.70;62.00;;;;;;4993607;28;20097;-71
2022/06/09 11:44:17;;;;;;;4.18;0.80;;;19.70;61.90;;;;;;4993514;28;20555;-71
2022/06/09 11:46:43;;;;;;;3.72;0.85;;;19.70;62.00;;;;;;4993362;28;20054;-71
2022/06/09 11:49:29;;;;;;;4.22;0.88;;;19.70;62.00;;;;;;4993312;28;20113;-71
2022/06/09 11:51:55;;;;;;;3.75;1.13;;;19.70;61.80;;;;;;4958066;28;20034;-71
2022/06/09 11:54:43;;;;;;;3.97;0.85;;;19.70;62.00;;;;;;4973915;28;20027;-71
2022/06/09 11:57:25;;;;;;;5.40;0.70;;;19.70;61.90;;;;;;4973553;28;20391;-71
2022/06/09 11:59:51;;;;;;;4.47;1.03;;;19.70;61.70;;;;;;4973702;28;20030;-71
2022/06/09 12:02:31;;;;;;;3.65;0.68;;;19.70;61.80;;;;;;4973511;28;20031;-71
2022/06/09 12:05:26;;;;;;;4.55;0.90;;;19.80;62.00;;;;;;4973933;28;20101;-71
2022/06/09 12:08:16;;;;;;;3.90;0.80;;;19.70;62.00;;;;;;4973508;28;20031;-71
2022/06/09 12:11:08;;;;;;;5.28;0.70;;;19.80;62.10;;;;;;4973798;28;20027;-71
2022/06/09 12:13:36;;;;;;;2.97;0.63;;;19.80;62.10;;;;;;4993097;28;20611;-71
2022/06/09 12:16:22;;;;;;;6.95;0.82;;;19.70;62.00;;;;;;4995053;28;20037;-71
2022/06/09 12:19:15;;;;;;;5.57;0.80;;;19.80;62.10;;;;;;4994347;28;20109;-71
2022/06/09 12:21:44;;;;;;;2.72;0.70;;;19.80;62.10;;;;;;4995179;28;20038;-71
2022/06/09 12:24:30;;;;;;;3.97;0.88;;;19.80;61.90;;;;;;4993864;28;20033;-71
2022/06/09 12:27:17;;;;;;;4.13;0.90;;;19.80;61.80;;;;;;4971107;28;20027;-71
2022/06/09 12:29:45;;;;;;;6.45;1.00;;;19.80;61.40;;;;;;4970907;28;20054;-71
2022/06/09 12:32:11;;;;;;;4.53;0.77;;;19.80;61.50;;;;;;4971063;28;20035;-71
2022/06/09 12:34:39;;;;;;;5.18;0.90;;;19.80;61.60;;;;;;4956183;29;20478;-71
2022/06/09 12:37:05;;;;;;;6.97;0.90;;;19.80;61.70;;;;;;4955913;29;20023;-72
2022/06/09 12:39:41;;;;;;;4.45;1.13;;;19.90;61.60;;;;;;4970990;28;20482;-72
2022/06/09 12:42:46;;;;;;;4.47;0.63;;;19.80;61.70;;;;;;4970846;28;20035;-72
2022/06/09 12:45:26;;;;;;;6.90;1.00;;;19.90;61.80;;;;;;4970633;28;20027;-71
2022/06/09 12:48:13;;;;;;;5.93;1.23;;;19.90;61.70;;;;;;4970702;28;20047;-71
2022/06/09 12:50:44;;;;;;;4.57;1.40;;;19.90;61.70;;;;;;4970581;28;20016;-71
2022/06/09 12:53:34;;;;;;;4.43;1.33;;;19.90;61.50;;;;;;4970201;28;20031;-71
2022/06/09 12:56:05;;;;;;;1.52;0.45;;;19.90;61.60;;;;;;4955758;29;20015;-71
2022/06/09 12:58:37;;;;;;;7.63;1.23;;;19.90;61.60;;;;;;4969995;28;20034;-72
2022/06/09 13:01:04;;;;;;;6.60;0.85;;;20.00;61.50;;;;;;4955707;29;20510;-72
2022/06/09 13:03:32;;;;;;;5.22;0.82;;;20.00;61.40;;;;;;4970385;28;20123;-72
2022/06/09 13:06:14;;;;;;;2.88;0.80;;;20.00;61.30;;;;;;4973849;28;20054;-72
2022/06/09 13:08:47;;;;;;;1.75;0.70;;;20.00;61.00;;;;;;4974835;28;20031;-72
2022/06/09 13:12:50;;;;;;;5.10;0.90;;;20.00;61.00;;;;;;4972974;28;20011;-72
2022/06/09 13:14:10;;;;;;;2.05;0.60;;;20.00;60.70;;;;;;4973247;28;20034;-72
2022/06/09 13:16:39;;;;;;;2.88;0.60;;;20.10;60.80;;;;;;4973523;28;20034;-72
2022/06/09 13:19:05;;;;;;;3.85;0.80;;;20.10;60.80;;;;;;4973486;28;20030;-72
2022/06/09 13:21:36;;;;;;;4.38;0.82;;;20.10;60.80;;;;;;4974585;28;20401;-72
2022/06/09 13:24:02;;;;;;;2.85;0.70;;;20.10;60.80;;;;;;4973526;28;20097;-72
2022/06/09 13:26:46;;;;;;;5.07;1.10;;;20.10;60.90;;;;;;4972840;28;20086;-72
2022/06/09 13:29:29;;;;;;;4.68;0.88;;;20.10;60.80;;;;;;4956922;28;20037;-72